Other Surface Observations
Issued by NWS Missoula, MT

Home | Current Version | Previous Version | Text Only | Print | Product List | Glossary On
Versions: 1 2 3 4 5 6 7 8 9 10 11 12 13 14 15 16 17 18 19 20 21 22 23 24 25 26 27 28 29 30 31 32 33 34 35 36 37 38 39 40 41 42 43 44 45 46 47 48 49 50
763
SXUS55 KMSO 252023
OSOMSO
MONTANA AWOS SUMMARY
NATIONAL WEATHER SERVICE MISSOULA MT
223 PM MDT THU MAY 25 2017

Montana AWOS Reports

LAUREL      |K6S8 252015Z AUTO 27017G25KT 40SM 14/01 A2973 RMK AO1 T01390006
ROUNDUP     |KRPX 252015Z AUTO 27019G30KT 40SM 13/01 A2963 RMK AO1 T01330011




USA.gov is the U.S. government's official web portal to all federal, state and local government web resources and services.